Time;durP1;ratioP1;P1;durP2;ratioP2;P2;SDS_P1;SDS_P2;PMS_P1;PMS_P2;Temp;Humidity;BMP_temperature;BMP_pressure;BME280_temperature;BME280_humidity;BME280_pressure;Samples;Min_cycle;Max_cycle;Signal;HPM_P1;HPM_P2
2023/12/13 00:00:21;;;;;;;18.92;9.45;;;7.40;99.90;;;;;;2073893;28;20037;-72
2023/12/13 00:01:22;;;;;;;22.20;9.50;;;7.40;99.90;;;;;;2065354;28;20034;-72
2023/12/13 00:02:22;;;;;;;23.23;9.07;;;7.40;99.90;;;;;;2074546;28;20033;-72
2023/12/13 00:03:23;;;;;;;22.70;9.38;;;7.40;99.90;;;;;;2073796;28;20037;-72
2023/12/13 00:04:24;;;;;;;23.65;10.15;;;7.40;99.90;;;;;;2066800;28;20790;-73
2023/12/13 00:05:24;;;;;;;24.95;10.95;;;7.40;99.90;;;;;;2065899;28;20977;-72
2023/12/13 00:06:25;;;;;;;26.17;10.80;;;7.40;99.90;;;;;;2059232;28;20066;-73
2023/12/13 00:07:26;;;;;;;22.60;10.13;;;7.30;99.90;;;;;;2065740;28;20075;-73
2023/12/13 00:08:26;;;;;;;24.77;10.48;;;7.40;99.90;;;;;;2066273;28;20045;-73
2023/12/13 00:09:27;;;;;;;25.33;11.13;;;7.30;99.90;;;;;;2065813;28;20060;-72
2023/12/13 00:10:27;;;;;;;23.42;10.90;;;7.30;99.90;;;;;;2066887;28;20033;-72
2023/12/13 00:11:28;;;;;;;21.48;9.52;;;7.30;99.90;;;;;;2067446;28;20030;-72
2023/12/13 00:12:28;;;;;;;23.77;9.95;;;7.30;99.90;;;;;;2068768;28;20025;-73
2023/12/13 00:13:29;;;;;;;23.52;10.27;;;7.30;99.90;;;;;;2066297;28;20034;-72
2023/12/13 00:14:29;;;;;;;29.15;11.68;;;7.30;99.90;;;;;;2063393;28;20038;-72
2023/12/13 00:15:30;;;;;;;26.88;10.63;;;7.30;99.90;;;;;;2069692;28;20067;-72
2023/12/13 00:16:31;;;;;;;22.23;10.40;;;7.30;99.90;;;;;;2067362;28;20060;-72
2023/12/13 00:17:31;;;;;;;23.95;10.68;;;7.30;99.90;;;;;;2070165;28;20037;-73
2023/12/13 00:18:31;;;;;;;25.83;11.60;;;7.30;99.90;;;;;;2069867;28;20072;-73
2023/12/13 00:19:32;;;;;;;25.98;12.13;;;7.30;99.90;;;;;;2066895;28;20542;-72
2023/12/13 00:20:32;;;;;;;25.92;11.88;;;7.30;99.90;;;;;;2069849;28;20037;-73
2023/12/13 00:21:33;;;;;;;26.67;10.93;;;7.30;99.90;;;;;;2062960;28;20036;-72
2023/12/13 00:22:34;;;;;;;26.30;10.75;;;7.30;99.90;;;;;;2070927;28;20028;-72
2023/12/13 00:23:34;;;;;;;25.73;11.32;;;7.30;99.90;;;;;;2076056;28;20422;-72
2023/12/13 00:24:35;;;;;;;26.30;11.02;;;7.30;99.90;;;;;;2072464;28;20141;-72
2023/12/13 00:25:35;;;;;;;25.48;10.80;;;7.30;99.90;;;;;;2071489;28;20068;-72
2023/12/13 00:26:36;;;;;;;22.90;10.68;;;7.30;99.90;;;;;;2071420;28;20025;-72
2023/12/13 00:27:36;;;;;;;23.15;10.65;;;7.30;99.90;;;;;;2064483;28;20035;-73
2023/12/13 00:28:37;;;;;;;23.23;11.48;;;7.30;99.90;;;;;;2071489;28;20547;-72
2023/12/13 00:29:39;;;;;;;22.98;11.05;;;7.30;99.90;;;;;;2075336;28;20025;-72
2023/12/13 00:30:39;;;;;;;24.20;10.73;;;7.30;99.90;;;;;;2064639;28;20026;-72
2023/12/13 00:31:40;;;;;;;26.00;11.00;;;7.30;99.90;;;;;;2068806;28;20540;-72
2023/12/13 00:32:40;;;;;;;19.20;10.35;;;7.30;99.90;;;;;;2070291;28;20033;-71
2023/12/13 00:33:42;;;;;;;21.67;10.65;;;7.30;99.90;;;;;;2068863;28;20041;-71
2023/12/13 00:34:43;;;;;;;22.83;10.63;;;7.30;99.90;;;;;;2070553;28;20068;-72
2023/12/13 00:35:43;;;;;;;25.75;11.45;;;7.40;99.90;;;;;;2069020;28;20036;-71
2023/12/13 00:36:44;;;;;;;23.92;12.07;;;7.30;99.90;;;;;;2064744;28;20061;-71
2023/12/13 00:37:44;;;;;;;30.67;13.52;;;7.30;99.90;;;;;;2078915;28;20120;-71
2023/12/13 00:38:45;;;;;;;35.65;15.05;;;7.30;99.90;;;;;;2079437;28;20348;-71
2023/12/13 00:39:45;;;;;;;27.08;12.55;;;7.30;99.90;;;;;;2071486;28;20018;-71
2023/12/13 00:40:46;;;;;;;31.85;14.95;;;7.30;99.90;;;;;;2070294;28;20442;-72
2023/12/13 00:41:46;;;;;;;38.95;16.52;;;7.30;99.90;;;;;;2072391;28;20029;-71
2023/12/13 00:42:47;;;;;;;32.80;15.27;;;7.30;99.90;;;;;;2068044;28;20387;-71
2023/12/13 00:43:47;;;;;;;31.98;14.43;;;7.30;99.90;;;;;;2068051;28;20037;-71
2023/12/13 00:44:49;;;;;;;28.55;13.10;;;7.30;99.90;;;;;;2072102;28;20022;-71
2023/12/13 00:45:49;;;;;;;24.05;12.05;;;7.30;99.90;;;;;;2069699;28;20022;-72
2023/12/13 00:46:50;;;;;;;25.08;12.05;;;7.30;99.90;;;;;;2070447;28;20627;-72
2023/12/13 00:47:50;;;;;;;27.70;12.40;;;7.30;99.90;;;;;;2070811;28;20037;-71
2023/12/13 00:48:51;;;;;;;27.98;12.05;;;7.30;99.90;;;;;;2068900;28;20192;-71
2023/12/13 00:49:52;;;;;;;37.35;15.20;;;7.30;99.90;;;;;;2067784;28;20301;-71
2023/12/13 00:50:53;;;;;;;26.63;12.63;;;7.30;99.90;;;;;;2071267;28;20037;-71
2023/12/13 00:51:53;;;;;;;27.15;12.55;;;7.30;99.90;;;;;;2069067;28;20061;-71
2023/12/13 00:52:54;;;;;;;24.10;12.05;;;7.30;99.90;;;;;;2069133;28;20521;-72
2023/12/13 00:53:54;;;;;;;25.65;12.68;;;7.30;99.90;;;;;;2071901;28;20025;-71
2023/12/13 00:54:55;;;;;;;27.08;11.98;;;7.30;99.90;;;;;;2069874;28;20034;-72
2023/12/13 00:55:55;;;;;;;25.92;12.02;;;7.30;99.90;;;;;;2069366;28;20069;-70
2023/12/13 00:56:56;;;;;;;23.27;12.27;;;7.30;99.90;;;;;;2071533;28;20037;-71
2023/12/13 00:57:57;;;;;;;23.30;12.45;;;7.30;99.90;;;;;;2068088;28;20080;-72
2023/12/13 00:58:58;;;;;;;25.85;12.90;;;7.30;99.90;;;;;;2068957;28;20560;-72
2023/12/13 00:59:58;;;;;;;25.90;12.82;;;7.30;99.90;;;;;;2071796;28;20034;-71
2023/12/13 01:01:00;;;;;;;23.30;13.02;;;7.30;99.90;;;;;;2070645;28;20038;-71
2023/12/13 01:02:03;;;;;;;31.83;14.45;;;7.30;99.90;;;;;;2069063;28;20269;-71
2023/12/13 01:03:03;;;;;;;24.42;13.15;;;7.30;99.90;;;;;;2071993;28;20400;-72
2023/12/13 01:04:04;;;;;;;38.13;16.88;;;7.30;99.90;;;;;;2071450;28;20025;-72
2023/12/13 01:05:06;;;;;;;25.13;13.52;;;7.30;99.90;;;;;;2065670;28;20122;-72
2023/12/13 01:06:10;;;;;;;30.45;14.82;;;7.30;99.90;;;;;;2071952;28;20065;-73
2023/12/13 01:07:11;;;;;;;27.08;14.32;;;7.30;99.90;;;;;;2071848;28;20426;-73
2023/12/13 01:08:12;;;;;;;29.85;14.82;;;7.30;99.90;;;;;;2079212;28;20045;-73
2023/12/13 01:09:12;;;;;;;26.45;13.90;;;7.30;99.90;;;;;;2067765;28;20508;-72
2023/12/13 01:10:13;;;;;;;29.30;16.05;;;7.30;99.90;;;;;;2069952;28;20049;-73
2023/12/13 01:11:13;;;;;;;27.55;14.07;;;7.30;99.90;;;;;;2067513;28;20103;-73
2023/12/13 01:12:15;;;;;;;25.48;13.05;;;7.30;99.90;;;;;;2064527;28;20105;-71
2023/12/13 01:13:15;;;;;;;26.60;13.68;;;7.30;99.90;;;;;;2071199;28;20037;-72
2023/12/13 01:14:16;;;;;;;27.40;13.75;;;7.30;99.90;;;;;;2067843;28;20030;-71
2023/12/13 01:15:16;;;;;;;22.75;13.23;;;7.40;99.90;;;;;;2068777;28;20022;-71
2023/12/13 01:16:17;;;;;;;27.83;14.10;;;7.30;99.90;;;;;;2071173;28;20544;-71
2023/12/13 01:17:18;;;;;;;23.35;13.00;;;7.40;99.90;;;;;;2068912;28;20026;-71
2023/12/13 01:18:18;;;;;;;26.92;13.52;;;7.40;99.90;;;;;;2068966;28;20030;-71
2023/12/13 01:19:19;;;;;;;26.05;12.88;;;7.40;99.90;;;;;;2070440;28;20579;-73
2023/12/13 01:20:19;;;;;;;25.90;13.85;;;7.40;99.90;;;;;;2079002;28;20533;-71
2023/12/13 01:21:20;;;;;;;25.92;15.32;;;7.40;99.90;;;;;;2076464;28;20241;-72
2023/12/13 01:22:20;;;;;;;31.73;15.02;;;7.40;99.90;;;;;;2070322;28;20104;-72
2023/12/13 01:23:21;;;;;;;27.55;14.43;;;7.40;99.90;;;;;;2070036;28;20118;-72
2023/12/13 01:24:21;;;;;;;35.70;16.33;;;7.40;99.90;;;;;;2067194;28;20022;-72
2023/12/13 01:25:22;;;;;;;27.42;13.80;;;7.40;99.90;;;;;;2068462;28;20416;-72
2023/12/13 01:26:22;;;;;;;28.70;13.93;;;7.40;99.90;;;;;;2068879;28;20059;-72
2023/12/13 01:27:23;;;;;;;26.20;13.80;;;7.40;99.90;;;;;;2070667;28;20518;-72
2023/12/13 01:28:23;;;;;;;35.03;16.85;;;7.40;99.90;;;;;;2077515;28;20029;-71
2023/12/13 01:29:24;;;;;;;30.70;15.45;;;7.40;99.90;;;;;;2077021;28;20037;-72
2023/12/13 01:30:25;;;;;;;31.65;14.18;;;7.40;99.90;;;;;;2072053;28;20416;-73
2023/12/13 01:31:25;;;;;;;26.48;14.52;;;7.40;99.90;;;;;;2067053;28;20045;-71
2023/12/13 01:32:26;;;;;;;25.85;14.65;;;7.40;99.90;;;;;;2076387;28;20095;-71
2023/12/13 01:33:26;;;;;;;30.60;15.23;;;7.40;99.90;;;;;;2078888;28;20139;-72
2023/12/13 01:34:27;;;;;;;32.70;16.45;;;7.40;99.90;;;;;;2066784;28;20492;-72
2023/12/13 01:35:27;;;;;;;33.88;16.40;;;7.40;99.90;;;;;;2063039;28;20076;-72
2023/12/13 01:36:28;;;;;;;26.45;14.63;;;7.40;99.90;;;;;;2074372;28;20118;-71
2023/12/13 01:37:29;;;;;;;32.10;16.27;;;7.40;99.90;;;;;;2076105;28;20567;-71
2023/12/13 01:38:30;;;;;;;43.70;21.88;;;7.40;99.90;;;;;;2065719;28;20072;-71
2023/12/13 01:39:30;;;;;;;34.00;16.77;;;7.40;99.90;;;;;;2067571;28;20068;-71
2023/12/13 01:40:31;;;;;;;27.95;14.93;;;7.40;99.90;;;;;;2074900;28;20108;-71
2023/12/13 01:41:31;;;;;;;28.90;15.30;;;7.40;99.90;;;;;;2075184;28;20079;-71
2023/12/13 01:42:32;;;;;;;27.02;14.68;;;7.40;99.90;;;;;;2068527;28;20196;-71
2023/12/13 01:43:32;;;;;;;30.77;16.45;;;7.40;99.90;;;;;;2067409;28;20033;-71
2023/12/13 01:44:33;;;;;;;28.63;14.98;;;7.40;99.90;;;;;;2071773;28;20619;-72
2023/12/13 01:45:33;;;;;;;27.95;15.32;;;7.40;99.90;;;;;;2070539;28;20049;-71
2023/12/13 01:46:34;;;;;;;29.88;14.70;;;7.40;99.90;;;;;;2068520;28;20422;-72
2023/12/13 01:47:36;;;;;;;26.88;14.20;;;7.40;99.90;;;;;;2068184;28;20429;-71
2023/12/13 01:48:37;;;;;;;23.85;14.15;;;7.40;99.90;;;;;;2070113;28;20453;-71
2023/12/13 01:49:38;;;;;;;28.75;15.32;;;7.40;99.90;;;;;;2067596;28;20627;-71
2023/12/13 01:50:39;;;;;;;25.85;14.93;;;7.40;99.90;;;;;;2071575;28;20033;-71
2023/12/13 01:51:40;;;;;;;34.78;17.38;;;7.40;99.90;;;;;;2075013;28;20033;-71
2023/12/13 01:52:41;;;;;;;27.98;14.85;;;7.40;99.90;;;;;;2067019;28;20326;-71
2023/12/13 01:53:42;;;;;;;26.55;15.43;;;7.40;99.90;;;;;;2069049;28;20456;-72
2023/12/13 01:54:43;;;;;;;25.33;14.50;;;7.30;99.90;;;;;;2070524;28;20127;-72
2023/12/13 01:55:44;;;;;;;27.58;15.70;;;7.30;99.90;;;;;;2074314;28;20491;-72
2023/12/13 01:56:45;;;;;;;27.65;14.40;;;7.40;99.90;;;;;;2067641;28;20132;-72
2023/12/13 01:57:46;;;;;;;25.15;15.45;;;7.40;99.90;;;;;;2071079;28;20511;-72
2023/12/13 01:58:47;;;;;;;27.25;15.20;;;7.40;99.90;;;;;;2071169;28;20391;-72
2023/12/13 01:59:48;;;;;;;23.42;14.35;;;7.40;99.90;;;;;;2068159;28;20121;-72
2023/12/13 02:00:50;;;;;;;25.88;14.95;;;7.40;99.90;;;;;;2069813;28;20018;-72
2023/12/13 02:01:52;;;;;;;28.13;15.43;;;7.40;99.90;;;;;;2068059;28;20393;-72
2023/12/13 02:02:52;;;;;;;23.80;14.98;;;7.40;99.90;;;;;;2076146;28;20298;-72
2023/12/13 02:03:53;;;;;;;26.55;14.90;;;7.40;99.90;;;;;;2067559;28;20040;-72
2023/12/13 02:04:54;;;;;;;25.65;15.98;;;7.40;99.90;;;;;;2068392;28;20049;-72
2023/12/13 02:05:55;;;;;;;25.98;15.05;;;7.40;99.90;;;;;;2075142;28;20028;-72
2023/12/13 02:06:55;;;;;;;31.38;16.60;;;7.40;99.90;;;;;;2069400;28;20036;-72
2023/12/13 02:07:56;;;;;;;29.10;15.50;;;7.40;99.90;;;;;;2069008;28;20029;-72
2023/12/13 02:08:57;;;;;;;34.40;17.30;;;7.40;99.90;;;;;;2069344;28;20033;-72
2023/12/13 02:09:58;;;;;;;29.08;15.35;;;7.40;99.90;;;;;;2071334;28;20014;-72
2023/12/13 02:10:59;;;;;;;27.95;15.38;;;7.40;99.90;;;;;;2069587;28;20033;-72
2023/12/13 02:12:00;;;;;;;25.85;15.05;;;7.40;99.90;;;;;;2070601;28;20112;-72
2023/12/13 02:13:00;;;;;;;26.23;15.20;;;7.40;99.90;;;;;;2068701;28;20036;-72
2023/12/13 02:14:02;;;;;;;27.33;15.52;;;7.40;99.90;;;;;;2070979;28;20033;-72
2023/12/13 02:15:03;;;;;;;25.63;15.02;;;7.40;99.90;;;;;;2071161;28;20776;-72
2023/12/13 02:16:04;;;;;;;29.65;17.25;;;7.40;99.90;;;;;;2069619;28;20190;-72
2023/12/13 02:17:04;;;;;;;26.95;15.25;;;7.40;99.90;;;;;;2068960;28;20034;-72
2023/12/13 02:18:06;;;;;;;28.85;14.98;;;7.40;99.90;;;;;;2074649;28;20037;-71
2023/12/13 02:19:08;;;;;;;29.92;16.15;;;7.40;99.90;;;;;;2070682;28;20052;-71
2023/12/13 02:20:09;;;;;;;30.27;15.88;;;7.40;99.90;;;;;;2068408;28;20256;-71
2023/12/13 02:21:10;;;;;;;27.58;15.75;;;7.40;99.90;;;;;;2067656;28;20518;-71
2023/12/13 02:22:10;;;;;;;26.02;15.20;;;7.40;99.90;;;;;;2069824;28;20033;-71
2023/12/13 02:23:11;;;;;;;25.20;14.88;;;7.40;99.90;;;;;;2068103;28;20021;-71
2023/12/13 02:24:12;;;;;;;27.67;15.82;;;7.30;99.90;;;;;;2071346;28;20176;-71
2023/12/13 02:25:20;;;;;;;27.13;15.32;;;7.40;99.90;;;;;;2074814;28;20673;-71
2023/12/13 02:26:21;;;;;;;26.90;15.27;;;7.30;99.90;;;;;;2067022;28;20037;-71
2023/12/13 02:27:26;;;;;;;27.52;15.43;;;7.30;99.90;;;;;;2067388;28;20026;-72
2023/12/13 02:28:28;;;;;;;28.90;15.77;;;7.30;99.90;;;;;;2067289;28;20570;-71
2023/12/13 02:29:28;;;;;;;24.27;15.18;;;7.30;99.90;;;;;;2068790;28;20048;-72
2023/12/13 02:30:29;;;;;;;32.90;17.23;;;7.30;99.90;;;;;;2070615;28;20034;-72
2023/12/13 02:31:30;;;;;;;27.40;15.68;;;7.30;99.90;;;;;;2067305;28;20025;-72
2023/12/13 02:32:30;;;;;;;28.33;16.60;;;7.30;99.90;;;;;;2071572;28;20129;-72
2023/12/13 02:33:31;;;;;;;27.15;15.70;;;7.30;99.90;;;;;;2072637;28;20068;-72
2023/12/13 02:34:32;;;;;;;28.05;16.48;;;7.30;99.90;;;;;;2070706;28;20025;-72
2023/12/13 02:35:32;;;;;;;30.17;16.15;;;7.30;99.90;;;;;;2070541;28;20076;-72
2023/12/13 02:36:33;;;;;;;27.13;15.30;;;7.30;99.90;;;;;;2058732;28;20022;-72
2023/12/13 02:37:33;;;;;;;26.15;15.73;;;7.30;99.90;;;;;;2066691;28;20026;-72
2023/12/13 02:38:34;;;;;;;27.40;15.77;;;7.30;99.90;;;;;;2071319;28;20381;-72
2023/12/13 02:39:35;;;;;;;29.30;16.38;;;7.30;99.90;;;;;;2069428;28;20034;-72
2023/12/13 02:40:36;;;;;;;31.17;17.05;;;7.30;99.90;;;;;;2064063;28;20095;-72
2023/12/13 02:41:37;;;;;;;28.63;16.27;;;7.30;99.90;;;;;;2070870;28;20061;-72
2023/12/13 02:42:38;;;;;;;33.15;18.00;;;7.30;99.90;;;;;;2067353;28;20534;-72
2023/12/13 02:43:38;;;;;;;28.15;16.48;;;7.30;99.90;;;;;;2062136;28;20030;-72
2023/12/13 02:44:42;;;;;;;28.20;17.17;;;7.30;99.90;;;;;;2063328;28;20619;-72
2023/12/13 02:45:43;;;;;;;32.53;16.95;;;7.30;99.90;;;;;;2066855;28;20116;-72
2023/12/13 02:46:43;;;;;;;27.17;16.77;;;7.30;99.90;;;;;;2067146;28;20065;-72
2023/12/13 02:47:44;;;;;;;29.05;16.70;;;7.30;99.90;;;;;;2067031;28;20034;-72
2023/12/13 02:48:45;;;;;;;32.55;17.35;;;7.30;99.90;;;;;;2069276;28;20029;-72
2023/12/13 02:49:45;;;;;;;28.25;17.05;;;7.30;99.90;;;;;;2067295;28;20030;-72
2023/12/13 02:50:48;;;;;;;30.85;17.05;;;7.20;99.90;;;;;;2067043;28;20026;-72
2023/12/13 02:51:48;;;;;;;29.60;17.52;;;7.20;99.90;;;;;;2070949;28;20065;-72
2023/12/13 02:52:49;;;;;;;34.58;18.80;;;7.30;99.90;;;;;;2078049;28;20029;-71
2023/12/13 02:53:49;;;;;;;27.35;17.52;;;7.20;99.90;;;;;;2074744;28;20044;-71
2023/12/13 02:54:50;;;;;;;28.80;17.02;;;7.20;99.90;;;;;;2074346;28;20056;-73
2023/12/13 02:55:50;;;;;;;31.02;17.63;;;7.20;99.90;;;;;;2077939;28;20060;-73
2023/12/13 02:56:51;;;;;;;29.00;17.63;;;7.20;99.90;;;;;;2068981;28;20107;-73
2023/12/13 02:57:51;;;;;;;32.97;17.67;;;7.20;99.90;;;;;;2063661;28;20033;-72
2023/12/13 02:58:52;;;;;;;29.98;17.83;;;7.20;99.90;;;;;;2070255;28;20033;-72
2023/12/13 02:59:53;;;;;;;28.50;16.77;;;7.10;99.90;;;;;;2063614;28;20028;-72
2023/12/13 03:00:53;;;;;;;34.65;18.05;;;7.10;99.90;;;;;;2067013;28;20407;-72
2023/12/13 03:01:54;;;;;;;30.92;18.85;;;7.20;99.90;;;;;;2067388;28;20032;-72
2023/12/13 03:02:57;;;;;;;36.40;18.60;;;7.20;99.90;;;;;;2066262;28;20030;-72
2023/12/13 03:03:57;;;;;;;33.45;19.00;;;7.10;99.90;;;;;;2063398;28;20088;-72
2023/12/13 03:05:00;;;;;;;31.30;19.08;;;7.20;99.90;;;;;;2058161;28;20427;-71
2023/12/13 03:06:00;;;;;;;32.42;18.83;;;7.10;99.90;;;;;;2070071;28;20434;-72
2023/12/13 03:07:01;;;;;;;32.13;18.75;;;7.20;99.90;;;;;;2066506;28;20033;-71
2023/12/13 03:08:01;;;;;;;30.35;18.63;;;7.10;99.90;;;;;;2064757;28;20381;-72
2023/12/13 03:09:02;;;;;;;35.75;19.73;;;7.10;99.90;;;;;;2068524;28;20041;-72
2023/12/13 03:10:02;;;;;;;33.38;18.90;;;7.10;99.90;;;;;;2064021;28;20034;-71
2023/12/13 03:11:03;;;;;;;31.52;18.60;;;7.10;99.90;;;;;;2069444;28;20033;-72
2023/12/13 03:12:04;;;;;;;38.13;22.52;;;7.00;99.90;;;;;;2070774;28;20411;-72
2023/12/13 03:13:04;;;;;;;33.58;19.98;;;7.10;99.90;;;;;;2064877;28;20034;-72
2023/12/13 03:14:05;;;;;;;40.30;20.23;;;7.00;99.90;;;;;;2068295;28;20034;-72
2023/12/13 03:15:06;;;;;;;35.90;20.30;;;7.00;99.90;;;;;;2058079;28;20038;-72
2023/12/13 03:16:07;;;;;;;36.85;19.63;;;7.00;99.90;;;;;;2066123;28;20034;-72
2023/12/13 03:17:07;;;;;;;32.28;19.75;;;6.90;99.90;;;;;;2062930;28;20032;-71
2023/12/13 03:18:08;;;;;;;36.60;20.08;;;6.90;99.90;;;;;;2067711;28;20119;-71
2023/12/13 03:19:08;;;;;;;37.55;21.15;;;6.90;99.90;;;;;;2067672;28;24224;-71
2023/12/13 03:20:10;;;;;;;34.67;20.20;;;6.90;99.90;;;;;;2078450;28;20038;-72
2023/12/13 03:21:10;;;;;;;35.05;19.67;;;6.90;99.90;;;;;;2074311;28;20100;-72
2023/12/13 03:22:11;;;;;;;33.50;20.08;;;6.90;99.90;;;;;;2074274;28;20426;-72
2023/12/13 03:23:12;;;;;;;35.50;20.48;;;6.90;99.90;;;;;;2074423;28;20041;-70
2023/12/13 03:24:12;;;;;;;35.30;19.27;;;6.90;99.90;;;;;;2066691;28;20022;-71
2023/12/13 03:25:13;;;;;;;34.08;20.13;;;6.90;99.90;;;;;;2069951;28;20030;-72
2023/12/13 03:26:13;;;;;;;31.83;19.35;;;6.90;99.90;;;;;;2069952;28;20018;-71
2023/12/13 03:27:14;;;;;;;38.78;19.58;;;6.90;99.90;;;;;;2067399;28;20140;-72
2023/12/13 03:28:14;;;;;;;33.13;19.67;;;6.80;99.90;;;;;;2066462;28;20034;-71
2023/12/13 03:29:16;;;;;;;31.90;19.65;;;6.90;99.90;;;;;;2069302;28;20022;-71
2023/12/13 03:30:16;;;;;;;36.30;20.35;;;6.90;99.90;;;;;;2062484;28;20048;-72
2023/12/13 03:31:17;;;;;;;35.47;20.90;;;6.90;99.90;;;;;;2060284;28;20519;-71
2023/12/13 03:32:17;;;;;;;36.72;20.45;;;6.90;99.90;;;;;;2068610;28;20037;-72
2023/12/13 03:33:18;;;;;;;33.53;19.88;;;6.80;99.90;;;;;;2070539;28;20101;-71
2023/12/13 03:34:18;;;;;;;32.60;19.48;;;6.80;99.90;;;;;;2067163;28;20026;-71
2023/12/13 03:35:19;;;;;;;33.35;20.52;;;6.90;99.90;;;;;;2066841;28;20060;-71
2023/12/13 03:36:20;;;;;;;33.83;19.83;;;6.80;99.90;;;;;;2066607;28;20125;-71
2023/12/13 03:37:22;;;;;;;31.35;19.95;;;6.80;99.90;;;;;;2066791;28;20408;-72
2023/12/13 03:38:22;;;;;;;34.55;20.23;;;6.80;99.90;;;;;;2070577;28;20251;-70
2023/12/13 03:39:23;;;;;;;31.77;19.70;;;6.80;99.90;;;;;;2066625;28;20061;-70
2023/12/13 03:40:23;;;;;;;33.22;20.30;;;6.80;99.90;;;;;;2078266;28;20025;-70
2023/12/13 03:41:24;;;;;;;37.08;21.30;;;6.80;99.90;;;;;;2074482;28;20033;-71
2023/12/13 03:42:25;;;;;;;32.22;20.35;;;6.80;99.90;;;;;;2070207;28;20034;-71
2023/12/13 03:43:25;;;;;;;36.67;20.83;;;6.80;99.90;;;;;;2070517;28;20143;-71
2023/12/13 03:44:26;;;;;;;36.40;20.90;;;6.80;99.90;;;;;;2067428;28;20146;-71
2023/12/13 03:45:26;;;;;;;32.78;19.85;;;6.80;99.90;;;;;;2070150;28;20053;-71
2023/12/13 03:46:27;;;;;;;33.83;19.98;;;6.80;99.90;;;;;;2070896;28;20025;-71
2023/12/13 03:47:28;;;;;;;30.83;19.73;;;6.80;99.90;;;;;;2067547;28;20018;-71
2023/12/13 03:48:28;;;;;;;30.63;19.95;;;6.80;99.90;;;;;;2068799;28;20018;-71
2023/12/13 03:49:29;;;;;;;37.40;20.15;;;6.80;99.90;;;;;;2069638;28;20032;-72
2023/12/13 03:50:29;;;;;;;31.83;20.20;;;6.80;99.90;;;;;;2067549;28;20060;-71
2023/12/13 03:51:30;;;;;;;30.70;19.75;;;6.80;99.90;;;;;;2068441;28;20026;-71
2023/12/13 03:52:30;;;;;;;31.73;20.02;;;6.80;99.90;;;;;;2067753;28;20044;-71
2023/12/13 03:53:31;;;;;;;30.42;19.80;;;6.80;99.90;;;;;;2067613;28;20083;-71
2023/12/13 03:54:32;;;;;;;36.95;20.77;;;6.80;99.90;;;;;;2068625;28;20034;-71
2023/12/13 03:55:32;;;;;;;31.98;19.73;;;6.80;99.90;;;;;;2069676;28;20029;-71
2023/12/13 03:56:33;;;;;;;31.85;20.48;;;6.80;99.90;;;;;;2065868;28;20087;-71
2023/12/13 03:57:33;;;;;;;32.28;19.80;;;6.80;99.90;;;;;;2068524;28;20060;-72
2023/12/13 03:58:34;;;;;;;29.70;19.38;;;6.80;99.90;;;;;;2069689;28;20017;-71
2023/12/13 03:59:34;;;;;;;30.40;18.85;;;6.80;99.90;;;;;;2068185;28;20224;-72
2023/12/13 04:00:35;;;;;;;33.05;19.55;;;6.80;99.90;;;;;;2068957;28;20522;-72
2023/12/13 04:01:36;;;;;;;29.63;19.25;;;6.80;99.90;;;;;;2069384;28;20503;-71
2023/12/13 04:02:36;;;;;;;33.03;20.20;;;6.80;99.90;;;;;;2065615;28;20026;-71
2023/12/13 04:03:37;;;;;;;34.97;19.67;;;6.80;99.90;;;;;;2074011;28;20034;-71
2023/12/13 04:04:37;;;;;;;30.23;19.63;;;6.80;99.90;;;;;;2065629;28;20543;-71
2023/12/13 04:05:38;;;;;;;34.58;21.15;;;6.80;99.90;;;;;;2065945;28;20053;-72
2023/12/13 04:06:38;;;;;;;31.95;19.15;;;6.80;99.90;;;;;;2069041;28;20363;-72
2023/12/13 04:07:39;;;;;;;31.27;18.15;;;6.80;99.90;;;;;;2068569;28;20494;-72
2023/12/13 04:08:39;;;;;;;30.40;18.52;;;6.80;99.90;;;;;;2066588;28;20053;-71
2023/12/13 04:09:40;;;;;;;31.33;18.65;;;6.80;99.90;;;;;;2074071;28;20037;-71
2023/12/13 04:10:40;;;;;;;29.33;18.38;;;6.80;99.90;;;;;;2074240;28;20657;-71
2023/12/13 04:11:41;;;;;;;31.48;18.60;;;6.80;99.90;;;;;;2065142;28;20743;-71
2023/12/13 04:12:41;;;;;;;31.02;18.92;;;6.80;99.90;;;;;;2069066;28;20095;-72
2023/12/13 04:13:42;;;;;;;33.40;19.23;;;6.80;99.90;;;;;;2068137;28;20045;-71
2023/12/13 04:14:43;;;;;;;33.33;18.92;;;6.80;99.90;;;;;;2073756;28;20105;-71
2023/12/13 04:15:43;;;;;;;30.48;18.35;;;6.80;99.90;;;;;;2073892;28;20526;-72
2023/12/13 04:16:44;;;;;;;30.98;18.58;;;6.80;99.90;;;;;;2071797;28;20060;-72
2023/12/13 04:17:44;;;;;;;27.67;17.65;;;6.80;99.90;;;;;;2066484;28;20026;-72
2023/12/13 04:18:45;;;;;;;31.92;18.73;;;6.80;99.90;;;;;;2066657;28;20034;-72
2023/12/13 04:19:45;;;;;;;27.02;18.17;;;6.80;99.90;;;;;;2070242;28;20038;-71
2023/12/13 04:20:46;;;;;;;30.55;17.80;;;6.80;99.90;;;;;;2069872;28;20035;-71
2023/12/13 04:21:46;;;;;;;34.15;18.75;;;6.80;99.90;;;;;;2067457;28;20034;-72
2023/12/13 04:22:47;;;;;;;31.30;19.23;;;6.80;99.90;;;;;;2070502;28;20113;-71
2023/12/13 04:23:47;;;;;;;27.80;17.83;;;6.80;99.90;;;;;;2069260;28;20356;-71
2023/12/13 04:24:48;;;;;;;31.50;18.80;;;6.80;99.90;;;;;;2066569;28;20172;-71
2023/12/13 04:25:49;;;;;;;27.05;17.63;;;6.80;99.90;;;;;;2066768;28;20092;-72
2023/12/13 04:26:49;;;;;;;31.90;18.60;;;6.80;99.90;;;;;;2069712;28;20440;-72
2023/12/13 04:27:50;;;;;;;30.20;17.95;;;6.80;99.90;;;;;;2066775;28;20057;-72
2023/12/13 04:28:50;;;;;;;27.73;17.60;;;6.80;99.90;;;;;;2070478;28;20076;-72
2023/12/13 04:29:51;;;;;;;29.73;18.15;;;6.80;99.90;;;;;;2070839;28;20111;-71
2023/12/13 04:30:52;;;;;;;30.58;17.90;;;6.80;99.90;;;;;;2063764;28;20550;-75
2023/12/13 04:31:52;;;;;;;26.50;17.20;;;6.80;99.90;;;;;;2066838;28;20343;-78
2023/12/13 04:32:53;;;;;;;27.25;16.80;;;6.80;99.90;;;;;;2070055;28;20030;-78
2023/12/13 04:33:53;;;;;;;29.80;17.60;;;6.80;99.90;;;;;;2066282;28;20042;-77
2023/12/13 04:34:54;;;;;;;26.15;16.48;;;6.80;99.90;;;;;;2069631;28;20021;-78
2023/12/13 04:35:59;;;;;;;23.20;16.27;;;6.80;99.90;;;;;;2069910;28;20025;-78
2023/12/13 04:36:59;;;;;;;27.83;16.98;;;6.80;99.90;;;;;;2066890;28;20566;-78
2023/12/13 04:38:00;;;;;;;28.15;17.17;;;6.70;99.90;;;;;;2077065;28;20083;-79
2023/12/13 04:39:00;;;;;;;26.42;16.42;;;6.70;99.90;;;;;;2069799;28;20344;-78
2023/12/13 04:40:02;;;;;;;24.73;16.48;;;6.80;99.90;;;;;;2067115;28;20091;-71
2023/12/13 04:41:03;;;;;;;23.38;15.90;;;6.80;99.90;;;;;;2076571;28;20021;-72
2023/12/13 04:42:03;;;;;;;26.75;15.98;;;6.80;99.90;;;;;;2070228;28;20037;-73
2023/12/13 04:43:04;;;;;;;26.10;16.70;;;6.80;99.90;;;;;;2069882;28;20321;-73
2023/12/13 04:44:07;;;;;;;26.45;16.80;;;6.90;99.90;;;;;;2067133;28;20042;-73
2023/12/13 04:45:08;;;;;;;27.50;16.98;;;6.80;99.90;;;;;;2064440;28;20038;-73
2023/12/13 04:46:09;;;;;;;33.92;19.63;;;6.90;99.90;;;;;;2070215;28;20048;-72
2023/12/13 04:47:10;;;;;;;26.55;16.67;;;6.80;99.90;;;;;;2068435;28;20125;-72
2023/12/13 04:48:10;;;;;;;24.25;15.90;;;6.90;99.90;;;;;;2068397;28;20507;-70
2023/12/13 04:49:11;;;;;;;25.90;15.77;;;6.90;99.90;;;;;;2068525;28;20072;-70
2023/12/13 04:50:11;;;;;;;25.08;16.58;;;6.90;99.90;;;;;;2068397;28;20096;-70
2023/12/13 04:51:12;;;;;;;28.30;17.13;;;6.90;99.90;;;;;;2070524;28;20061;-68
2023/12/13 04:52:12;;;;;;;46.55;25.48;;;6.90;99.90;;;;;;2068304;28;20913;-73
2023/12/13 04:53:13;;;;;;;33.83;18.80;;;6.90;99.90;;;;;;2066655;28;20045;-74
2023/12/13 04:54:14;;;;;;;26.67;16.35;;;6.90;99.90;;;;;;2069281;28;20037;-75
2023/12/13 04:55:14;;;;;;;28.83;17.83;;;6.90;99.90;;;;;;2067619;28;20038;-75
2023/12/13 04:56:15;;;;;;;23.88;15.88;;;6.90;99.90;;;;;;2066497;28;20050;-74
2023/12/13 04:57:15;;;;;;;27.08;16.35;;;6.90;99.90;;;;;;2064698;28;20231;-74
2023/12/13 04:58:16;;;;;;;26.30;16.00;;;6.90;99.90;;;;;;2062136;28;20510;-74
2023/12/13 04:59:17;;;;;;;26.17;16.38;;;6.90;99.90;;;;;;2062465;28;20054;-75
2023/12/13 05:00:18;;;;;;;30.30;16.70;;;6.90;99.90;;;;;;2067992;28;20334;-75
2023/12/13 05:01:18;;;;;;;25.55;16.98;;;6.90;99.90;;;;;;2066499;28;20038;-75
2023/12/13 05:02:19;;;;;;;25.80;16.38;;;6.90;99.90;;;;;;2069605;28;20080;-75
2023/12/13 05:03:20;;;;;;;30.05;18.35;;;6.90;99.90;;;;;;2073642;28;20017;-74
2023/12/13 05:04:20;;;;;;;27.05;16.38;;;6.90;99.90;;;;;;2073963;28;20081;-74
2023/12/13 05:05:21;;;;;;;30.55;17.10;;;6.90;99.90;;;;;;2067155;28;20029;-74
2023/12/13 05:06:21;;;;;;;26.17;16.45;;;6.90;99.90;;;;;;2069898;28;20032;-75
2023/12/13 05:07:22;;;;;;;32.67;19.08;;;6.90;99.90;;;;;;2066763;28;20032;-75
2023/12/13 05:08:23;;;;;;;25.70;16.40;;;6.90;99.90;;;;;;2071289;28;20069;-75
2023/12/13 05:09:23;;;;;;;28.95;17.38;;;6.90;99.90;;;;;;2071889;28;20380;-75
2023/12/13 05:10:24;;;;;;;27.13;17.90;;;6.90;99.90;;;;;;2067466;28;20564;-75
2023/12/13 05:11:24;;;;;;;30.42;17.55;;;6.90;99.90;;;;;;2071398;28;20519;-75
2023/12/13 05:12:25;;;;;;;27.38;16.98;;;6.90;99.90;;;;;;2072005;28;20030;-76